Time;durP1;ratioP1;P1;durP2;ratioP2;P2;SDS_P1;SDS_P2;PMS_P1;PMS_P2;Temp;Humidity;BMP_temperature;BMP_pressure;BME280_temperature;BME280_humidity;BME280_pressure;Samples;Min_cycle;Max_cycle;Signal;HPM_P1;HPM_P2
2023/04/26 00:00:29;;;;;;;;;;;;;;;6.31;100.00;96618.94;5043181;28;20012;-70
2023/04/26 00:02:54;;;;;;;;;;;;;;;6.26;100.00;96611.78;5060557;28;20338;-71
2023/04/26 00:05:19;;;;;;;;;;;;;;;6.29;100.00;96610.34;5040257;28;19916;-71
2023/04/26 00:07:45;;;;;;;;;;;;;;;6.33;100.00;96611.22;5062157;28;20363;-71
2023/04/26 00:10:11;;;;;;;;;;;;;;;6.36;100.00;96615.22;5058318;28;20328;-72
2023/04/26 00:12:36;;;;;;;;;;;;;;;6.38;100.00;96618.38;5063014;28;19982;-72
2023/04/26 00:15:04;;;;;;;;;;;;;;;6.42;100.00;96614.63;5062823;28;20405;-71
2023/04/26 00:17:30;;;;;;;;;;;;;;;6.44;100.00;96623.22;5067201;28;19916;-72
2023/04/26 00:19:56;;;;;;;;;;;;;;;6.40;100.00;96624.28;5069279;28;19920;-70
2023/04/26 00:22:22;;;;;;;;;;;;;;;6.38;100.00;96627.31;5061746;28;20391;-70
2023/04/26 00:24:47;;;;;;;;;;;;;;;6.37;100.00;96631.16;5044701;28;20007;-70
2023/04/26 00:27:13;;;;;;;;;;;;;;;6.40;100.00;96627.78;5039221;28;19986;-71
2023/04/26 00:29:38;;;;;;;;;;;;;;;6.44;100.00;96628.66;5061531;28;19916;-71
2023/04/26 00:32:03;;;;;;;;;;;;;;;6.45;100.00;96624.81;5060183;28;19916;-74
2023/04/26 00:34:33;;;;;;;;;;;;;;;6.46;100.00;96639.22;5061246;28;19920;-73
2023/04/26 00:36:58;;;;;;;;;;;;;;;6.42;100.00;96636.38;5062643;28;19966;-72
2023/04/26 00:39:25;;;;;;;;;;;;;;;6.34;100.00;96633.78;5057380;28;19973;-73
2023/04/26 00:41:51;;;;;;;;;;;;;;;6.28;100.00;96636.75;5062958;28;20384;-74
2023/04/26 00:44:16;;;;;;;;;;;;;;;6.28;100.00;96641.38;5038934;28;20015;-75
2023/04/26 00:46:42;;;;;;;;;;;;;;;6.18;100.00;96639.13;5065543;28;20007;-74
2023/04/26 00:49:07;;;;;;;;;;;;;;;6.08;100.00;96638.41;5044268;28;19916;-74
2023/04/26 00:51:32;;;;;;;;;;;;;;;5.98;100.00;96636.16;5064154;28;19924;-74
2023/04/26 00:53:58;;;;;;;;;;;;;;;5.85;100.00;96639.94;5048005;28;19924;-71
2023/04/26 00:56:24;;;;;;;;;;;;;;;5.81;100.00;96639.03;5042861;28;19928;-73
2023/04/26 00:58:49;;;;;;;;;;;;;;;5.88;100.00;96636.56;5066401;28;19967;-74
2023/04/26 01:01:15;;;;;;;;;;;;;;;5.92;100.00;96642.91;5060571;28;20365;-73
2023/04/26 01:03:40;;;;;;;;;;;;;;;6.03;100.00;96629.69;5065076;28;19920;-72
2023/04/26 01:06:05;;;;;;;;;;;;;;;6.02;100.00;96637.06;5060427;28;19916;-73
2023/04/26 01:08:31;;;;;;;;;;;;;;;5.97;100.00;96634.56;5064913;28;19978;-73
2023/04/26 01:10:57;;;;;;;;;;;;;;;5.86;100.00;96639.59;5031364;28;19966;-71
2023/04/26 01:13:23;;;;;;;;;;;;;;;5.76;100.00;96629.16;5060918;28;19920;-71
2023/04/26 01:15:49;;;;;;;;;;;;;;;5.66;100.00;96630.41;5064181;28;19988;-71
2023/04/26 01:18:14;;;;;;;;;;;;;;;5.57;100.00;96629.69;5042072;28;20409;-72
2023/04/26 01:20:40;;;;;;;;;;;;;;;5.49;100.00;96625.94;5066628;28;19924;-71
2023/04/26 01:23:06;;;;;;;;;;;;;;;5.39;100.00;96620.94;5060653;28;20269;-72
2023/04/26 01:25:31;;;;;;;;;;;;;;;5.38;100.00;96622.03;5071524;28;19918;-72
2023/04/26 01:27:56;;;;;;;;;;;;;;;5.23;100.00;96633.53;5072149;28;19983;-74
2023/04/26 01:30:22;;;;;;;;;;;;;;;5.01;100.00;96637.41;5063968;28;19939;-73
2023/04/26 01:32:47;;;;;;;;;;;;;;;4.86;100.00;96633.34;5030028;28;19960;-73
2023/04/26 01:35:12;;;;;;;;;;;;;;;4.74;100.00;96640.31;5059859;28;19994;-74
2023/04/26 01:37:37;;;;;;;;;;;;;;;4.61;100.00;96630.50;5064639;28;19935;-72
2023/04/26 01:40:05;;;;;;;;;;;;;;;4.53;100.00;96631.34;5062232;28;19916;-72
2023/04/26 01:42:31;;;;;;;;;;;;;;;4.45;100.00;96635.72;5064901;28;20249;-73
2023/04/26 01:44:56;;;;;;;;;;;;;;;4.47;100.00;96638.88;5065204;28;19969;-71
2023/04/26 01:47:22;;;;;;;;;;;;;;;4.40;100.00;96644.81;5058647;28;20147;-72
2023/04/26 01:49:47;;;;;;;;;;;;;;;4.45;100.00;96641.13;5065242;28;19952;-72
2023/04/26 01:52:12;;;;;;;;;;;;;;;4.57;100.00;96637.69;5043213;28;19916;-76
2023/04/26 01:54:37;;;;;;;;;;;;;;;4.56;100.00;96628.00;5064687;28;19921;-74
2023/04/26 01:57:03;;;;;;;;;;;;;;;4.60;100.00;96634.34;5060494;28;19978;-71
2023/04/26 01:59:28;;;;;;;;;;;;;;;4.62;100.00;96636.72;5064226;28;19922;-73
2023/04/26 02:01:54;;;;;;;;;;;;;;;4.65;100.00;96638.78;5046255;28;19923;-73
2023/04/26 02:04:19;;;;;;;;;;;;;;;4.54;100.00;96644.59;5059034;28;20411;-75
2023/04/26 02:06:44;;;;;;;;;;;;;;;4.47;100.00;96638.09;5064286;28;19917;-74
2023/04/26 02:09:10;;;;;;;;;;;;;;;4.45;100.00;96637.59;5059845;28;20007;-73
2023/04/26 02:11:35;;;;;;;;;;;;;;;4.47;100.00;96633.47;5064958;28;19924;-74
2023/04/26 02:14:01;;;;;;;;;;;;;;;4.24;100.00;96635.66;5063418;28;19921;-72
2023/04/26 02:16:26;;;;;;;;;;;;;;;4.13;100.00;96624.38;5058063;28;19917;-73
2023/04/26 02:18:52;;;;;;;;;;;;;;;4.04;100.00;96623.63;5045225;28;19946;-74
2023/04/26 02:21:17;;;;;;;;;;;;;;;4.01;100.00;96616.16;5058257;28;19916;-75
2023/04/26 02:23:43;;;;;;;;;;;;;;;3.99;100.00;96611.03;5064167;28;19943;-70
2023/04/26 02:26:08;;;;;;;;;;;;;;;4.01;100.00;96611.50;5059556;28;19920;-72
2023/04/26 02:28:33;;;;;;;;;;;;;;;3.99;100.00;96607.56;5046995;28;19916;-72
2023/04/26 02:31:00;;;;;;;;;;;;;;;4.04;100.00;96606.59;5064488;28;20289;-72
2023/04/26 02:33:26;;;;;;;;;;;;;;;3.97;100.00;96605.16;5041687;28;19975;-72
2023/04/26 02:35:51;;;;;;;;;;;;;;;3.98;100.00;96604.06;5065125;28;19948;-74
2023/04/26 02:38:16;;;;;;;;;;;;;;;3.98;100.00;96609.47;5060564;28;19916;-73
2023/04/26 02:40:42;;;;;;;;;;;;;;;4.06;100.00;96615.97;5051041;28;19927;-71
2023/04/26 02:43:09;;;;;;;;;;;;;;;4.26;100.00;96610.94;5065895;28;20032;-73
2023/04/26 02:45:39;;;;;;;;;;;;;;;4.43;100.00;96613.56;5069813;28;19920;-72
2023/04/26 02:48:04;;;;;;;;;;;;;;;4.33;100.00;96613.91;5045122;28;20400;-70
2023/04/26 02:50:30;;;;;;;;;;;;;;;4.19;100.00;96608.72;5067234;28;19970;-74
2023/04/26 02:52:55;;;;;;;;;;;;;;;4.29;100.00;96616.50;5063777;28;19951;-74
2023/04/26 02:55:20;;;;;;;;;;;;;;;4.48;100.00;96615.25;5059478;28;20433;-74
2023/04/26 02:57:46;;;;;;;;;;;;;;;4.52;100.00;96614.28;5064943;28;19924;-75
2023/04/26 03:00:12;;;;;;;;;;;;;;;4.57;100.00;96613.28;5041377;28;20007;-74
2023/04/26 03:02:38;;;;;;;;;;;;;;;4.56;100.00;96607.06;5064225;28;20447;-74
2023/04/26 03:05:03;;;;;;;;;;;;;;;4.66;100.00;96607.81;5060110;28;19917;-72
2023/04/26 03:07:28;;;;;;;;;;;;;;;4.73;100.00;96608.06;5064978;28;19924;-72
2023/04/26 03:09:54;;;;;;;;;;;;;;;4.71;100.00;96613.81;5044989;28;20688;-72
2023/04/26 03:12:19;;;;;;;;;;;;;;;4.63;100.00;96611.16;5058690;28;19932;-72
2023/04/26 03:14:44;;;;;;;;;;;;;;;4.56;100.00;96604.34;5045909;28;19921;-74
2023/04/26 03:17:10;;;;;;;;;;;;;;;4.49;100.00;96597.88;5059113;28;19974;-72
2023/04/26 03:19:35;;;;;;;;;;;;;;;4.32;100.00;96601.47;5065541;28;20292;-72
2023/04/26 03:22:00;;;;;;;;;;;;;;;4.22;100.00;96598.03;5046216;28;20008;-74
2023/04/26 03:24:26;;;;;;;;;;;;;;;4.24;100.00;96605.84;5059293;28;19927;-74
2023/04/26 03:26:51;;;;;;;;;;;;;;;4.19;100.00;96606.00;5046956;28;20312;-74
2023/04/26 03:29:16;;;;;;;;;;;;;;;4.27;100.00;96610.59;5058883;28;19966;-74
2023/04/26 03:31:42;;;;;;;;;;;;;;;4.42;100.00;96608.44;5056640;28;19939;-74
2023/04/26 03:34:07;;;;;;;;;;;;;;;4.27;100.00;96616.03;5041534;28;20389;-75
2023/04/26 03:36:33;;;;;;;;;;;;;;;4.23;100.00;96609.66;5064775;28;20341;-75
2023/04/26 03:38:58;;;;;;;;;;;;;;;4.19;100.00;96611.44;5068093;28;19963;-76
2023/04/26 03:41:24;;;;;;;;;;;;;;;4.12;100.00;96616.56;5055809;28;19966;-72
2023/04/26 03:43:49;;;;;;;;;;;;;;;4.09;100.00;96619.94;5075303;28;19967;-75
2023/04/26 03:46:14;;;;;;;;;;;;;;;4.18;100.00;96615.28;5059991;28;20439;-74
2023/04/26 03:48:40;;;;;;;;;;;;;;;4.19;100.00;96616.84;5063132;28;19990;-75
2023/04/26 03:51:05;;;;;;;;;;;;;;;4.17;100.00;96608.25;5058726;28;20288;-74
2023/04/26 03:53:31;;;;;;;;;;;;;;;4.28;100.00;96614.09;5067473;28;19964;-72
2023/04/26 03:55:56;;;;;;;;;;;;;;;4.41;100.00;96618.47;5047018;28;19916;-71
2023/04/26 03:58:22;;;;;;;;;;;;;;;4.51;100.00;96612.69;5040476;28;19931;-78
2023/04/26 04:00:47;;;;;;;;;;;;;;;4.65;100.00;96611.66;5063331;28;20327;-73
2023/04/26 04:03:13;;;;;;;;;;;;;;;4.73;100.00;96621.63;5058970;28;19924;-72
2023/04/26 04:05:38;;;;;;;;;;;;;;;4.79;100.00;96618.41;5063552;28;19917;-75
2023/04/26 04:08:03;;;;;;;;;;;;;;;4.82;100.00;96624.28;5059019;28;19916;-70
2023/04/26 04:10:29;;;;;;;;;;;;;;;4.75;100.00;96622.91;5043900;28;20361;-74
2023/04/26 04:12:54;;;;;;;;;;;;;;;4.68;100.00;96619.94;5065312;28;19928;-74
2023/04/26 04:15:20;;;;;;;;;;;;;;;4.48;100.00;96607.91;5040419;28;20297;-73
2023/04/26 04:17:45;;;;;;;;;;;;;;;4.30;100.00;96612.66;5063466;28;19960;-73
2023/04/26 04:20:12;;;;;;;;;;;;;;;4.20;100.00;96613.03;5041491;28;19970;-76
2023/04/26 04:22:38;;;;;;;;;;;;;;;4.18;100.00;96609.88;5064561;28;19916;-73
2023/04/26 04:25:10;;;;;;;;;;;;;;;4.17;100.00;96611.75;5061177;28;20284;-71
2023/04/26 04:27:36;;;;;;;;;;;;;;;4.09;100.00;96606.38;5066565;28;20442;-73
2023/04/26 04:30:07;;;;;;;;;;;;;;;4.09;100.00;96609.09;5066113;28;19920;-72
2023/04/26 04:32:32;;;;;;;;;;;;;;;4.08;100.00;96610.22;5066589;28;19917;-74
2023/04/26 04:34:58;;;;;;;;;;;;;;;4.07;100.00;96603.19;5066202;28;19923;-74
2023/04/26 04:37:24;;;;;;;;;;;;;;;4.08;100.00;96611.00;5062835;28;19923;-73
2023/04/26 04:39:50;;;;;;;;;;;;;;;4.15;100.00;96615.94;5066763;28;19935;-72
2023/04/26 04:42:16;;;;;;;;;;;;;;;4.17;100.00;96614.47;5061074;28;19924;-75
2023/04/26 04:44:41;;;;;;;;;;;;;;;4.18;100.00;96613.34;5067841;28;19916;-74
2023/04/26 04:47:07;;;;;;;;;;;;;;;4.21;100.00;96620.03;5063373;28;19955;-72
2023/04/26 04:49:32;;;;;;;;;;;;;;;4.30;100.00;96618.06;5065421;28;19917;-73
2023/04/26 04:51:57;;;;;;;;;;;;;;;4.54;100.00;96620.19;5065645;28;19916;-73
2023/04/26 04:54:23;;;;;;;;;;;;;;;4.80;100.00;96619.19;5061951;28;20421;-72
2023/04/26 04:56:49;;;;;;;;;;;;;;;4.96;100.00;96625.59;5056178;28;20097;-73
2023/04/26 04:59:14;;;;;;;;;;;;;;;4.94;100.00;96625.16;5064135;28;20033;-73
2023/04/26 05:01:39;;;;;;;;;;;;;;;5.02;100.00;96623.47;5066937;28;19927;-74
2023/04/26 05:04:05;;;;;;;;;;;;;;;5.12;100.00;96612.22;5061697;28;20054;-72
2023/04/26 05:06:31;;;;;;;;;;;;;;;5.32;100.00;96628.81;5065083;28;19920;-73
2023/04/26 05:08:56;;;;;;;;;;;;;;;5.49;100.00;96625.94;5067203;28;20713;-72
2023/04/26 05:11:22;;;;;;;;;;;;;;;5.66;100.00;96616.03;5061038;28;19924;-73
2023/04/26 05:13:48;;;;;;;;;;;;;;;5.29;100.00;96618.63;5081985;28;19921;-73
2023/04/26 05:16:13;;;;;;;;;;;;;;;4.94;100.00;96613.50;5053415;28;20305;-73
2023/04/26 05:18:38;;;;;;;;;;;;;;;4.85;100.00;96616.28;5047053;28;19924;-73
2023/04/26 05:21:04;;;;;;;;;;;;;;;5.08;100.00;96624.88;5059399;28;19916;-70
2023/04/26 05:23:30;;;;;;;;;;;;;;;5.46;100.00;96625.81;5065135;28;19948;-73
2023/04/26 05:25:55;;;;;;;;;;;;;;;5.92;100.00;96624.69;5066054;28;19974;-75
2023/04/26 05:28:20;;;;;;;;;;;;;;;6.23;100.00;96631.53;5061861;28;19931;-73
2023/04/26 05:30:46;;;;;;;;;;;;;;;6.50;100.00;96626.53;5065479;28;19920;-72
2023/04/26 05:33:11;;;;;;;;;;;;;;;6.73;100.00;96637.72;5061044;28;19932;-74
2023/04/26 05:35:36;;;;;;;;;;;;;;;6.95;100.00;96630.19;5065134;28;19920;-69
2023/04/26 05:38:03;;;;;;;;;;;;;;;7.52;100.00;96626.34;5044327;28;20388;-69
2023/04/26 05:40:28;;;;;;;;;;;;;;;7.74;100.00;96635.91;5057758;28;19923;-71
2023/04/26 05:42:53;;;;;;;;;;;;;;;7.99;100.00;96643.91;5065076;28;19916;-71
2023/04/26 05:45:19;;;;;;;;;;;;;;;8.15;100.00;96636.53;5062114;28;20384;-70
2023/04/26 05:47:46;;;;;;;;;;;;;;;8.57;100.00;96636.00;5067777;28;19916;-71
2023/04/26 05:50:11;;;;;;;;;;;;;;;9.33;100.00;96637.63;5033733;28;19916;-73
2023/04/26 05:52:37;;;;;;;;;;;;;;;9.08;100.00;96645.31;5051961;28;19931;-72
2023/04/26 05:55:03;;;;;;;;;;;;;;;10.55;100.00;96645.25;5071490;28;20455;-70
2023/04/26 05:57:28;;;;;;;;;;;;;;;12.07;91.68;96646.03;5080793;28;19920;-71
2023/04/26 05:59:54;;;;;;;;;;;;;;;13.09;80.04;96651.09;5082993;28;19928;-72
2023/04/26 06:02:19;;;;;;;;;;;;;;;13.29;77.82;96646.09;5064246;28;19921;-71
2023/04/26 06:04:45;;;;;;;;;;;;;;;13.31;74.97;96655.59;5067213;28;19923;-73
2023/04/26 06:07:10;;;;;;;;;;;;;;;12.73;82.34;96653.63;5060690;28;19962;-71
2023/04/26 06:09:35;;;;;;;;;;;;;;;12.14;86.26;96656.28;5079655;28;19943;-71
2023/04/26 06:12:01;;;;;;;;;;;;;;;11.74;81.98;96653.13;5080812;28;19927;-73
2023/04/26 06:14:26;;;;;;;;;;;;;;;9.53;99.07;96652.84;5053339;28;19921;-70
2023/04/26 06:16:52;;;;;;;;;;;;;;;10.25;93.61;96654.16;5047793;28;19917;-70
2023/04/26 06:19:17;;;;;;;;;;;;;;;9.62;99.12;96660.84;5061527;28;20036;-70
2023/04/26 06:21:42;;;;;;;;;;;;;;;10.44;94.21;96666.22;5047503;28;19920;-70
2023/04/26 06:24:07;;;;;;;;;;;;;;;9.86;100.00;96656.19;5043882;28;19916;-70
2023/04/26 06:26:33;;;;;;;;;;;;;;;10.35;94.90;96657.47;5065576;28;19970;-71
2023/04/26 06:28:58;;;;;;;;;;;;;;;10.78;98.33;96647.19;5065236;28;19924;-70
2023/04/26 06:31:24;;;;;;;;;;;;;;;9.31;100.00;96651.63;5043104;28;20364;-70
2023/04/26 06:33:49;;;;;;;;;;;;;;;9.33;100.00;96656.75;5047963;28;20300;-70
2023/04/26 06:36:14;;;;;;;;;;;;;;;9.69;100.00;96657.47;5027052;28;20008;-70
2023/04/26 06:38:40;;;;;;;;;;;;;;;8.99;100.00;96650.97;5065832;28;19974;-70
2023/04/26 06:41:05;;;;;;;;;;;;;;;8.45;100.00;96651.69;5042389;28;19966;-69
2023/04/26 06:43:31;;;;;;;;;;;;;;;10.76;100.00;96655.75;5063458;28;19939;-70
2023/04/26 06:45:56;;;;;;;;;;;;;;;14.37;74.27;96665.69;5047884;28;19916;-70
2023/04/26 06:48:21;;;;;;;;;;;;;;;14.18;72.68;96670.41;5042172;28;20476;-71
2023/04/26 06:50:47;;;;;;;;;;;;;;;10.51;90.12;96674.53;5064358;28;19917;-71
2023/04/26 06:53:12;;;;;;;;;;;;;;;9.74;100.00;96676.28;5058934;28;19927;-72
2023/04/26 06:55:37;;;;;;;;;;;;;;;8.91;100.00;96676.53;5046236;28;20062;-70
2023/04/26 06:58:02;;;;;;;;;;;;;;;9.35;100.00;96671.63;5059514;28;20332;-67
2023/04/26 07:00:28;;;;;;;;;;;;;;;10.12;97.42;96669.97;5062095;28;20036;-70
2023/04/26 07:02:54;;;;;;;;;;;;;;;9.83;98.34;96670.59;5064229;28;19960;-70
2023/04/26 07:05:19;;;;;;;;;;;;;;;10.77;95.91;96671.06;5061101;28;19921;-71
2023/04/26 07:07:44;;;;;;;;;;;;;;;13.26;76.79;96672.41;5066031;28;19923;-70
2023/04/26 07:10:10;;;;;;;;;;;;;;;14.12;69.00;96667.25;5062198;28;19964;-71
2023/04/26 07:12:35;;;;;;;;;;;;;;;15.56;60.45;96666.38;5066612;28;19920;-71
2023/04/26 07:15:01;;;;;;;;;;;;;;;15.60;60.23;96662.38;5064467;28;20285;-71
2023/04/26 07:17:26;;;;;;;;;;;;;;;13.95;67.33;96668.00;5059162;28;19916;-73
2023/04/26 07:19:52;;;;;;;;;;;;;;;12.86;73.37;96665.13;5030818;28;19974;-71
2023/04/26 07:22:17;;;;;;;;;;;;;;;11.41;76.47;96665.63;5058255;28;20407;-70
2023/04/26 07:24:42;;;;;;;;;;;;;;;9.63;92.54;96667.09;5066243;28;19948;-72
2023/04/26 07:27:07;;;;;;;;;;;;;;;11.57;85.32;96665.44;5041247;28;19928;-72
2023/04/26 07:29:33;;;;;;;;;;;;;;;12.67;76.82;96660.66;5066216;28;19924;-72
2023/04/26 07:31:58;;;;;;;;;;;;;;;12.00;76.63;96667.91;5066598;28;19926;-70
2023/04/26 07:34:24;;;;;;;;;;;;;;;10.79;82.74;96659.72;5059061;28;20640;-69
2023/04/26 07:36:49;;;;;;;;;;;;;;;8.96;98.73;96651.66;5066918;28;19921;-71
2023/04/26 07:39:15;;;;;;;;;;;;;;;9.71;95.58;96653.19;5060433;28;19980;-71
2023/04/26 07:41:40;;;;;;;;;;;;;;;9.88;96.97;96659.34;5048791;28;19921;-72
2023/04/26 07:44:06;;;;;;;;;;;;;;;10.41;92.81;96650.53;5072839;28;19923;-71
2023/04/26 07:46:34;;;;;;;;;;;;;;;10.14;93.55;96653.19;5050163;28;20024;-72
2023/04/26 07:49:00;;;;;;;;;;;;;;;10.68;93.42;96648.59;5047973;28;19927;-71
2023/04/26 07:51:26;;;;;;;;;;;;;;;11.89;83.09;96645.03;5040924;28;20372;-72
2023/04/26 07:53:51;;;;;;;;;;;;;;;13.42;73.54;96643.84;5065365;28;19924;-70
2023/04/26 07:56:17;;;;;;;;;;;;;;;14.81;62.80;96648.03;5063863;28;19978;-73
2023/04/26 07:58:42;;;;;;;;;;;;;;;12.74;68.37;96650.50;5068726;28;20022;-72
2023/04/26 08:01:10;;;;;;;;;;;;;;;12.31;72.42;96644.66;5048227;28;19923;-72
2023/04/26 08:03:36;;;;;;;;;;;;;;;11.71;75.75;96653.84;5055260;28;19916;-71
2023/04/26 08:06:01;;;;;;;;;;;;;;;12.08;70.85;96646.81;5074563;28;20327;-71
2023/04/26 08:08:26;;;;;;;;;;;;;;;11.90;71.24;96655.63;5048732;28;19920;-70
2023/04/26 08:10:52;;;;;;;;;;;;;;;12.10;72.85;96650.75;5062937;28;19917;-72
2023/04/26 08:13:17;;;;;;;;;;;;;;;10.99;77.05;96652.97;5058637;28;19928;-70
2023/04/26 08:15:43;;;;;;;;;;;;;;;11.23;75.33;96648.19;5073516;28;20270;-70
2023/04/26 08:18:08;;;;;;;;;;;;;;;11.58;73.89;96652.53;5062514;28;19924;-71
2023/04/26 08:20:33;;;;;;;;;;;;;;;11.90;75.29;96652.91;5068736;28;20007;-71
2023/04/26 08:22:59;;;;;;;;;;;;;;;11.70;78.19;96649.53;5069370;28;19920;-69
2023/04/26 08:25:24;;;;;;;;;;;;;;;10.95;83.94;96643.91;5047898;28;19990;-71
2023/04/26 08:27:51;;;;;;;;;;;;;;;11.13;83.31;96648.81;5052868;28;20012;-70
2023/04/26 08:30:16;;;;;;;;;;;;;;;11.27;78.87;96646.25;5046534;28;19920;-71
2023/04/26 08:32:42;;;;;;;;;;;;;;;11.26;76.69;96644.69;5070962;28;20384;-71
2023/04/26 08:35:08;;;;;;;;;;;;;;;11.39;77.30;96656.22;5065103;28;19986;-70
2023/04/26 08:37:35;;;;;;;;;;;;;;;11.56;77.01;96646.63;5070782;28;19948;-70
2023/04/26 08:40:00;;;;;;;;;;;;;;;12.55;77.48;96651.53;5068554;28;19979;-71
2023/04/26 08:42:26;;;;;;;;;;;;;;;14.16;66.38;96656.25;5063933;28;19969;-69
2023/04/26 08:44:52;;;;;;;;;;;;;;;15.49;61.47;96656.13;5074514;28;19952;-70
2023/04/26 08:47:21;;;;;;;;;;;;;;;16.14;58.05;96658.59;5066958;28;19916;-69
2023/04/26 08:49:52;;;;;;;;;;;;;;;16.73;54.66;96650.25;5070572;28;20435;-71
2023/04/26 08:52:21;;;;;;;;;;;;;;;16.91;52.94;96657.66;5045692;28;20014;-70
2023/04/26 08:54:48;;;;;;;;;;;;;;;16.18;51.96;96657.38;5067947;28;19925;-68
2023/04/26 08:57:14;;;;;;;;;;;;;;;15.25;53.21;96661.34;5062623;28;20442;-69
2023/04/26 08:59:41;;;;;;;;;;;;;;;15.09;57.22;96661.75;5068602;28;19920;-70
2023/04/26 09:02:06;;;;;;;;;;;;;;;13.92;59.02;96652.28;5063558;28;20015;-68
2023/04/26 09:04:32;;;;;;;;;;;;;;;14.30;59.81;96656.25;5068071;28;19974;-69
2023/04/26 09:06:59;;;;;;;;;;;;;;;13.66;64.55;96656.91;5051135;28;19920;-70
2023/04/26 09:09:26;;;;;;;;;;;;;;;14.64;60.61;96658.66;5062827;28;19939;-70
2023/04/26 09:11:52;;;;;;;;;;;;;;;14.05;61.66;96658.19;5050610;28;20005;-69
2023/04/26 09:14:18;;;;;;;;;;;;;;;14.63;59.03;96659.84;5041493;28;19925;-69
2023/04/26 09:16:43;;;;;;;;;;;;;;;14.81;58.46;96665.34;5067391;28;19923;-69
2023/04/26 09:19:09;;;;;;;;;;;;;;;14.72;56.67;96665.72;5046482;28;20369;-68
2023/04/26 09:21:41;;;;;;;;;;;;;;;14.74;55.91;96664.56;5045402;28;19963;-71
2023/04/26 09:24:06;;;;;;;;;;;;;;;14.35;54.83;96663.38;5025739;28;20435;-70
2023/04/26 09:26:31;;;;;;;;;;;;;;;14.35;56.68;96660.59;5048028;28;19917;-69
2023/04/26 09:29:16;;;;;;;;;;;;;;;15.35;55.19;96648.69;5051243;28;20031;-70
2023/04/26 09:31:46;;;;;;;;;;;;;;;16.98;50.09;96646.53;5055173;28;19948;-70
2023/04/26 09:34:11;;;;;;;;;;;;;;;15.04;52.87;96651.13;5048224;28;20032;-71
2023/04/26 09:36:50;;;;;;;;;;;;;;;16.87;49.99;96640.28;5055759;28;19975;-70
2023/04/26 09:39:36;;;;;;;;;;;;;;;17.30;49.68;96650.91;5024591;28;19923;-70
2023/04/26 09:42:02;;;;;;;;;;;;;;;18.80;44.83;96645.31;5046260;28;19923;-68
2023/04/26 09:44:28;;;;;;;;;;;;;;;16.03;49.99;96634.59;5026517;28;19924;-70
2023/04/26 09:47:04;;;;;;;;;;;;;;;16.74;47.11;96638.00;5028929;28;19936;-69
2023/04/26 09:49:43;;;;;;;;;;;;;;;16.18;46.70;96635.28;5028600;28;19920;-70
2023/04/26 09:52:08;;;;;;;;;;;;;;;18.25;43.41;96636.25;5025803;28;19917;-71
2023/04/26 09:54:41;;;;;;;;;;;;;;;18.96;40.87;96636.34;5046803;28;19928;-71
2023/04/26 09:57:06;;;;;;;;;;;;;;;19.68;41.89;96637.75;5041567;28;19917;-72
2023/04/26 09:59:42;;;;;;;;;;;;;;;19.55;39.42;96632.03;5046279;28;19924;-69
2023/04/26 10:02:21;;;;;;;;;;;;;;;20.27;35.50;96640.88;5022885;28;19923;-68
2023/04/26 10:04:47;;;;;;;;;;;;;;;19.90;39.15;96640.88;5046352;28;19920;-71
2023/04/26 10:07:13;;;;;;;;;;;;;;;19.22;39.10;96639.44;5040757;28;19975;-71
2023/04/26 10:09:42;;;;;;;;;;;;;;;20.07;38.30;96647.25;5048264;28;19920;-69
2023/04/26 10:12:11;;;;;;;;;;;;;;;19.35;38.95;96637.59;5050114;28;19917;-72
2023/04/26 10:14:36;;;;;;;;;;;;;;;18.15;40.43;96638.00;5045508;28;20344;-70
2023/04/26 10:17:02;;;;;;;;;;;;;;;16.91;43.28;96635.53;5036949;28;19971;-68
2023/04/26 10:19:28;;;;;;;;;;;;;;;15.80;45.44;96632.34;5040248;28;20389;-70
2023/04/26 10:21:57;;;;;;;;;;;;;;;15.95;45.66;96644.09;5047582;28;19927;-68
2023/04/26 10:24:23;;;;;;;;;;;;;;;15.56;47.01;96641.53;5059089;28;20336;-69
2023/04/26 10:26:53;;;;;;;;;;;;;;;15.28;47.65;96629.38;5030710;28;19924;-70
2023/04/26 10:29:26;;;;;;;;;;;;;;;15.10;48.12;96629.44;5027579;28;19917;-69
2023/04/26 10:32:01;;;;;;;;;;;;;;;15.01;46.85;96627.09;5051371;28;19921;-69
2023/04/26 10:34:27;;;;;;;;;;;;;;;15.07;46.80;96624.72;5025630;28;19920;-69
2023/04/26 10:37:09;;;;;;;;;;;;;;;15.48;46.00;96621.44;5044373;28;19928;-71
2023/04/26 10:39:35;;;;;;;;;;;;;;;15.43;46.38;96621.84;5009091;28;19917;-71
2023/04/26 10:42:23;;;;;;;;;;;;;;;14.38;47.02;96612.97;5043772;28;19917;-70
2023/04/26 10:44:48;;;;;;;;;;;;;;;14.27;48.73;96614.94;5044025;28;19920;-71
2023/04/26 10:47:20;;;;;;;;;;;;;;;15.92;45.64;96608.22;5037956;28;19917;-70
2023/04/26 10:49:47;;;;;;;;;;;;;;;17.14;42.28;96604.44;5044608;28;19924;-71
2023/04/26 10:52:17;;;;;;;;;;;;;;;17.20;41.64;96606.34;5039213;28;19938;-72
2023/04/26 10:54:56;;;;;;;;;;;;;;;17.27;39.41;96604.69;5042838;28;19924;-73
2023/04/26 10:57:22;;;;;;;;;;;;;;;17.88;39.31;96599.19;5021496;28;20282;-73
2023/04/26 11:00:09;;;;;;;;;;;;;;;16.73;40.13;96596.94;5043826;28;19920;-70
2023/04/26 11:02:54;;;;;;;;;;;;;;;17.51;38.71;96594.53;5043269;28;20431;-72
2023/04/26 11:05:37;;;;;;;;;;;;;;;17.80;38.44;96600.47;5038264;28;19927;-71
2023/04/26 11:08:03;;;;;;;;;;;;;;;16.22;40.63;96596.56;5041804;28;19917;-70
2023/04/26 11:10:28;;;;;;;;;;;;;;;16.61;41.68;96596.25;5042610;28;19927;-72
2023/04/26 11:13:02;;;;;;;;;;;;;;;16.85;41.96;96596.44;5024508;28;19925;-71
2023/04/26 11:15:27;;;;;;;;;;;;;;;16.56;40.67;96584.84;5038767;28;19917;-70
2023/04/26 11:17:53;;;;;;;;;;;;;;;16.40;41.20;96588.13;5044537;28;20297;-71
2023/04/26 11:20:18;;;;;;;;;;;;;;;16.65;39.95;96584.38;5040101;28;20698;-70
2023/04/26 11:22:43;;;;;;;;;;;;;;;15.93;41.45;96576.66;5043564;28;19928;-71
2023/04/26 11:25:12;;;;;;;;;;;;;;;15.79;42.97;96577.53;5039001;28;19951;-70
2023/04/26 11:27:37;;;;;;;;;;;;;;;15.99;41.11;96573.06;5044733;28;19917;-70
2023/04/26 11:30:03;;;;;;;;;;;;;;;15.64;41.89;96577.56;5023954;28;19924;-69
2023/04/26 11:32:29;;;;;;;;;;;;;;;15.99;42.93;96569.50;5041970;28;20020;-72
2023/04/26 11:34:54;;;;;;;;;;;;;;;13.87;45.07;96579.09;5025053;28;20019;-71
2023/04/26 11:37:19;;;;;;;;;;;;;;;14.83;45.29;96560.19;5039225;28;19975;-72
2023/04/26 11:39:45;;;;;;;;;;;;;;;15.81;44.31;96562.13;5042942;28;19921;-70
2023/04/26 11:42:11;;;;;;;;;;;;;;;16.20;42.05;96565.78;5038636;28;19920;-70
2023/04/26 11:44:37;;;;;;;;;;;;;;;16.36;41.78;96565.28;5043878;28;19931;-72
2023/04/26 11:47:05;;;;;;;;;;;;;;;15.96;42.30;96562.81;5040646;28;19917;-68
2023/04/26 11:49:31;;;;;;;;;;;;;;;15.93;39.97;96558.09;5042730;28;19920;-71
2023/04/26 11:51:57;;;;;;;;;;;;;;;15.97;40.10;96566.34;5043659;28;19960;-71
2023/04/26 11:54:29;;;;;;;;;;;;;;;15.90;40.29;96558.13;5037398;28;20487;-70
2023/04/26 11:56:55;;;;;;;;;;;;;;;16.10;40.17;96561.13;5042250;28;20004;-71
2023/04/26 11:59:30;;;;;;;;;;;;;;;16.14;39.93;96559.16;5037524;28;20012;-72
2023/04/26 12:01:56;;;;;;;;;;;;;;;16.19;39.55;96555.94;5028191;28;20646;-71
2023/04/26 12:04:28;;;;;;;;;;;;;;;16.21;38.09;96559.88;5049976;28;19925;-71
2023/04/26 12:06:53;;;;;;;;;;;;;;;16.23;38.33;96559.47;5054171;28;19921;-71
2023/04/26 12:09:39;;;;;;;;;;;;;;;16.23;37.60;96559.47;5044154;28;19921;-71
2023/04/26 12:12:07;;;;;;;;;;;;;;;15.41;37.83;96567.06;5043934;28;19917;-69
2023/04/26 12:14:33;;;;;;;;;;;;;;;13.91;40.88;96571.63;5054414;28;20007;-71
2023/04/26 12:17:00;;;;;;;;;;;;;;;13.51;42.26;96573.50;5045640;28;19978;-71
2023/04/26 12:19:26;;;;;;;;;;;;;;;14.91;40.74;96559.75;5018766;28;19921;-71
2023/04/26 12:21:52;;;;;;;;;;;;;;;15.92;39.31;96575.06;5042791;28;19916;-71
2023/04/26 12:24:24;;;;;;;;;;;;;;;16.58;38.31;96566.66;5037748;28;19921;-70
2023/04/26 12:26:49;;;;;;;;;;;;;;;16.41;37.72;96560.09;5023883;28;19928;-72
2023/04/26 12:29:15;;;;;;;;;;;;;;;16.82;36.99;96564.06;5038172;28;19940;-73
2023/04/26 12:31:40;;;;;;;;;;;;;;;17.24;36.17;96572.31;5041485;28;19971;-70
2023/04/26 12:34:05;;;;;;;;;;;;;;;17.06;34.92;96572.53;5037998;28;19975;-71
2023/04/26 12:36:31;;;;;;;;;;;;;;;15.45;37.56;96573.34;5023714;28;19960;-72
2023/04/26 12:38:56;;;;;;;;;;;;;;;16.24;37.57;96563.78;5028451;28;19916;-73
2023/04/26 12:41:22;;;;;;;;;;;;;;;15.74;37.94;96562.19;5047435;28;19924;-72
2023/04/26 12:43:47;;;;;;;;;;;;;;;15.85;37.43;96559.34;5030811;28;19924;-71